Time;durP1;ratioP1;P1;durP2;ratioP2;P2;SDS_P1;SDS_P2;PMS_P1;PMS_P2;Temp;Humidity;BMP_temperature;BMP_pressure;BME280_temperature;BME280_humidity;BME280_pressure;Samples;Min_cycle;Max_cycle;Signal;HPM_P1;HPM_P2
2023/06/14 00:01:57;;;;;;;4.03;3.83;;;14.50;62.40;;;;;;6267239;28;20273;-80
2023/06/14 00:05:01;;;;;;;4.23;3.93;;;14.50;62.60;;;;;;6259535;28;20733;-82
2023/06/14 00:08:07;;;;;;;3.70;3.50;;;14.50;62.50;;;;;;6276283;28;20243;-83
2023/06/14 00:11:10;;;;;;;3.87;3.77;;;14.40;62.60;;;;;;6284398;28;20859;-83
2023/06/14 00:14:13;;;;;;;4.03;3.93;;;14.40;63.10;;;;;;6271819;28;20234;-82
2023/06/14 00:17:18;;;;;;;4.80;3.97;;;14.40;63.30;;;;;;6261926;28;21963;-83
2023/06/14 00:20:22;;;;;;;3.70;3.60;;;14.30;63.60;;;;;;6274861;28;20229;-80
2023/06/14 00:23:25;;;;;;;3.70;3.60;;;14.30;63.60;;;;;;6258161;28;20295;-85
2023/06/14 00:26:28;;;;;;;4.43;4.00;;;14.30;63.80;;;;;;6271159;28;20226;-83
2023/06/14 00:29:32;;;;;;;4.33;4.10;;;14.20;64.00;;;;;;6292302;28;20846;-82
2023/06/14 00:32:36;;;;;;;4.60;4.30;;;14.20;64.30;;;;;;6276184;28;20246;-83
2023/06/14 00:35:39;;;;;;;4.10;4.00;;;14.20;64.40;;;;;;6276198;28;20721;-83
2023/06/14 00:38:43;;;;;;;4.90;4.50;;;14.20;64.30;;;;;;6276198;28;20376;-82
2023/06/14 00:41:46;;;;;;;4.77;4.37;;;14.10;64.70;;;;;;6275762;28;20238;-82
2023/06/14 00:44:49;;;;;;;4.10;3.90;;;14.10;64.80;;;;;;6273414;28;20226;-82
2023/06/14 00:47:55;;;;;;;4.37;4.20;;;14.00;65.00;;;;;;6275140;28;20244;-80
2023/06/14 00:51:03;;;;;;;5.07;4.80;;;14.00;65.40;;;;;;6290148;28;20326;-82
2023/06/14 00:54:07;;;;;;;4.70;4.30;;;14.00;65.60;;;;;;6273002;28;20232;-82
2023/06/14 00:57:11;;;;;;;5.60;5.20;;;14.00;65.60;;;;;;6271532;28;20237;-83
2023/06/14 01:00:15;;;;;;;5.17;4.87;;;14.00;66.00;;;;;;6273612;28;20245;-83
2023/06/14 01:03:22;;;;;;;5.47;5.07;;;13.90;66.30;;;;;;6267482;28;20246;-81
2023/06/14 01:06:42;;;;;;;6.17;5.60;;;13.90;66.40;;;;;;6277410;28;20281;-80
2023/06/14 01:09:56;;;;;;;5.57;5.17;;;13.90;66.70;;;;;;6284955;28;20229;-83
2023/06/14 01:13:04;;;;;;;4.90;4.60;;;13.90;66.60;;;;;;6281247;28;20689;-83
2023/06/14 01:16:09;;;;;;;5.30;5.10;;;13.90;66.70;;;;;;6272927;28;20241;-82
2023/06/14 01:19:15;;;;;;;5.87;5.50;;;13.90;66.70;;;;;;6281421;28;20686;-82
2023/06/14 01:22:18;;;;;;;5.30;5.00;;;13.90;66.80;;;;;;6270035;28;20274;-82
2023/06/14 01:25:23;;;;;;;6.00;5.60;;;13.90;66.80;;;;;;6270371;28;20368;-81
2023/06/14 01:28:31;;;;;;;5.67;5.20;;;13.90;67.00;;;;;;6272130;28;20241;-85
2023/06/14 01:31:41;;;;;;;6.17;5.53;;;13.90;67.00;;;;;;6265847;28;20225;-83
2023/06/14 01:34:44;;;;;;;6.13;5.53;;;13.90;67.20;;;;;;6275247;28;20312;-83
2023/06/14 01:37:49;;;;;;;6.23;5.80;;;13.90;67.10;;;;;;6274556;28;20245;-80
2023/06/14 01:40:55;;;;;;;5.80;5.60;;;13.80;67.00;;;;;;6272519;28;20242;-82
2023/06/14 01:43:59;;;;;;;6.30;5.37;;;13.80;67.00;;;;;;6281107;28;20262;-83
2023/06/14 01:47:02;;;;;;;5.63;5.43;;;13.80;67.20;;;;;;6262639;28;20242;-83
2023/06/14 01:50:07;;;;;;;6.13;5.73;;;13.80;67.20;;;;;;6287933;28;20230;-80
2023/06/14 01:53:11;;;;;;;5.57;5.27;;;13.70;67.20;;;;;;6283031;28;20233;-81
2023/06/14 01:56:16;;;;;;;5.17;4.97;;;13.70;67.20;;;;;;6266030;28;20319;-81
2023/06/14 01:59:19;;;;;;;7.13;5.93;;;13.70;67.30;;;;;;6284334;28;20253;-82
2023/06/14 02:02:22;;;;;;;6.30;5.90;;;13.70;67.50;;;;;;6287030;28;20579;-80
2023/06/14 02:05:26;;;;;;;6.20;5.60;;;13.60;67.50;;;;;;6253322;28;20240;-84
2023/06/14 02:08:30;;;;;;;6.20;5.67;;;13.60;67.50;;;;;;6280402;28;20775;-85
2023/06/14 02:11:34;;;;;;;6.63;6.03;;;13.60;67.60;;;;;;6264389;28;20241;-82
2023/06/14 02:14:38;;;;;;;6.00;5.60;;;13.60;67.70;;;;;;6284385;28;20629;-81
2023/06/14 02:17:41;;;;;;;5.77;5.63;;;13.50;67.90;;;;;;6279822;28;20868;-85
2023/06/14 02:20:44;;;;;;;5.93;5.63;;;13.50;68.00;;;;;;6272603;28;20234;-83
2023/06/14 02:23:47;;;;;;;8.00;5.87;;;13.50;68.10;;;;;;6308010;28;20261;-81
2023/06/14 02:26:52;;;;;;;6.00;5.60;;;13.60;68.30;;;;;;6268759;28;20732;-82
2023/06/14 02:29:55;;;;;;;6.87;6.43;;;13.50;68.30;;;;;;6268239;28;20240;-82
2023/06/14 02:32:59;;;;;;;6.77;6.17;;;13.50;68.50;;;;;;6274309;28;20275;-83
2023/06/14 02:36:05;;;;;;;12.67;9.00;;;13.50;68.60;;;;;;6275050;28;20228;-86
2023/06/14 02:39:10;;;;;;;6.73;6.23;;;13.50;68.50;;;;;;6256760;28;20357;-80
2023/06/14 02:42:14;;;;;;;7.03;6.43;;;13.50;68.60;;;;;;6275900;28;20268;-81
2023/06/14 02:45:18;;;;;;;6.70;6.30;;;13.50;68.70;;;;;;6290615;28;20283;-83
2023/06/14 02:48:21;;;;;;;6.70;6.30;;;13.50;68.70;;;;;;6284959;28;20232;-81
2023/06/14 02:51:24;;;;;;;7.43;6.63;;;13.50;68.70;;;;;;6293710;28;20240;-81
2023/06/14 02:54:28;;;;;;;6.90;6.60;;;13.50;68.80;;;;;;6288547;28;20226;-82
2023/06/14 02:57:32;;;;;;;6.60;6.07;;;13.40;68.80;;;;;;6266623;28;20229;-82
2023/06/14 03:00:36;;;;;;;6.77;5.90;;;13.40;68.80;;;;;;6288345;28;20237;-82
2023/06/14 03:03:39;;;;;;;5.83;5.43;;;13.40;68.90;;;;;;6270961;28;20875;-82
2023/06/14 03:06:44;;;;;;;6.97;6.57;;;13.40;68.80;;;;;;6266921;28;20241;-84
2023/06/14 03:09:48;;;;;;;7.37;6.87;;;13.40;69.00;;;;;;6269262;28;20383;-84
2023/06/14 03:12:53;;;;;;;7.47;6.70;;;13.30;69.00;;;;;;6266438;28;20234;-85
2023/06/14 03:15:56;;;;;;;7.10;6.70;;;13.40;69.00;;;;;;6268981;28;20340;-85
2023/06/14 03:18:59;;;;;;;6.63;6.20;;;13.30;69.00;;;;;;6264855;28;20945;-84
2023/06/14 03:22:02;;;;;;;5.73;5.53;;;13.40;69.00;;;;;;6290022;28;20881;-84
2023/06/14 03:25:06;;;;;;;6.40;6.10;;;13.40;68.90;;;;;;6285088;28;20314;-83
2023/06/14 03:28:11;;;;;;;6.47;6.17;;;13.40;68.70;;;;;;6284992;28;20237;-80
2023/06/14 03:31:14;;;;;;;8.17;7.40;;;13.30;68.90;;;;;;6266434;28;20326;-79
2023/06/14 03:34:19;;;;;;;7.20;6.70;;;13.40;69.00;;;;;;6263525;28;20284;-82
2023/06/14 03:37:22;;;;;;;7.37;6.77;;;13.40;68.90;;;;;;6272818;28;20241;-82
2023/06/14 03:40:27;;;;;;;6.47;6.10;;;13.40;69.10;;;;;;6274108;28;20317;-83
2023/06/14 03:43:31;;;;;;;6.63;6.30;;;13.50;68.90;;;;;;6281975;28;20222;-85
2023/06/14 03:46:35;;;;;;;5.63;5.33;;;13.50;68.80;;;;;;6279495;28;20313;-84
2023/06/14 03:49:38;;;;;;;7.10;6.60;;;13.50;68.70;;;;;;6282505;28;20236;-81
2023/06/14 03:52:43;;;;;;;6.40;5.90;;;13.50;68.80;;;;;;6280067;28;20244;-83
2023/06/14 03:55:46;;;;;;;7.60;6.90;;;13.50;68.70;;;;;;6283276;28;20229;-81
2023/06/14 03:58:53;;;;;;;6.57;6.10;;;13.50;68.70;;;;;;6280136;28;20225;-83
2023/06/14 04:01:56;;;;;;;7.27;6.87;;;13.50;68.60;;;;;;6291392;28;20245;-81
2023/06/14 04:04:59;;;;;;;10.63;7.57;;;13.60;68.70;;;;;;6277779;28;20229;-81
2023/06/14 04:08:08;;;;;;;7.10;6.60;;;13.70;68.70;;;;;;6309182;28;20232;-77
2023/06/14 04:11:11;;;;;;;7.23;6.67;;;13.80;68.40;;;;;;6290959;28;20232;-80
2023/06/14 04:14:16;;;;;;;5.97;5.67;;;13.90;68.20;;;;;;6303576;28;20215;-77
2023/06/14 04:17:19;;;;;;;6.00;5.80;;;14.00;68.00;;;;;;6300932;28;20249;-78
2023/06/14 04:20:23;;;;;;;7.30;6.70;;;14.00;67.80;;;;;;6310106;28;20245;-79
2023/06/14 04:23:28;;;;;;;7.73;7.13;;;14.10;67.70;;;;;;6321643;28;20240;-80
2023/06/14 04:26:33;;;;;;;7.40;7.00;;;14.10;67.70;;;;;;6313383;28;20260;-80
2023/06/14 04:29:38;;;;;;;7.53;6.90;;;14.20;67.50;;;;;;6317460;28;20221;-81
2023/06/14 04:32:42;;;;;;;8.17;7.33;;;14.30;67.30;;;;;;6305718;28;20241;-77
2023/06/14 04:35:47;;;;;;;7.20;6.70;;;14.30;67.30;;;;;;6305062;28;20286;-76
2023/06/14 04:38:53;;;;;;;7.87;7.27;;;14.40;67.20;;;;;;6310770;28;20245;-78
2023/06/14 04:42:00;;;;;;;6.87;6.47;;;14.40;67.00;;;;;;6298537;28;20244;-80
2023/06/14 04:45:06;;;;;;;8.27;7.43;;;14.50;66.90;;;;;;6299164;28;20221;-80
2023/06/14 04:48:13;;;;;;;7.33;6.83;;;14.60;66.80;;;;;;6282831;28;20214;-77
2023/06/14 04:51:16;;;;;;;6.90;6.40;;;14.70;66.60;;;;;;6285636;28;20225;-80
2023/06/14 04:54:19;;;;;;;9.10;7.53;;;14.90;66.30;;;;;;6298754;28;20229;-78
2023/06/14 04:57:25;;;;;;;8.17;7.47;;;15.00;65.80;;;;;;6302848;28;20225;-78
2023/06/14 05:00:30;;;;;;;6.67;6.17;;;15.20;65.30;;;;;;6298644;28;20326;-81
2023/06/14 05:03:34;;;;;;;8.10;6.27;;;15.50;65.10;;;;;;6294093;28;20229;-82
2023/06/14 05:06:38;;;;;;;7.57;6.97;;;15.80;64.20;;;;;;6280280;28;20272;-85
2023/06/14 05:09:41;;;;;;;7.27;6.87;;;16.10;63.70;;;;;;6280557;28;20237;-83
2023/06/14 05:12:44;;;;;;;6.47;6.00;;;16.20;63.00;;;;;;6281928;28;20237;-83
2023/06/14 05:15:48;;;;;;;7.53;7.00;;;16.10;62.90;;;;;;6288075;28;20275;-81
2023/06/14 05:18:52;;;;;;;7.20;6.60;;;16.00;63.20;;;;;;6279671;28;20226;-82
2023/06/14 05:21:55;;;;;;;7.83;7.23;;;16.00;63.50;;;;;;6281081;28;20238;-83
2023/06/14 05:24:58;;;;;;;7.33;6.83;;;15.90;63.50;;;;;;6274500;28;20260;-83
2023/06/14 05:28:01;;;;;;;9.37;7.20;;;16.00;63.40;;;;;;6278203;28;20267;-82
2023/06/14 05:31:06;;;;;;;8.53;6.70;;;16.00;63.40;;;;;;6276219;28;20359;-83
2023/06/14 05:34:09;;;;;;;6.77;6.27;;;16.10;63.40;;;;;;6275831;28;20234;-84
2023/06/14 05:37:13;;;;;;;5.83;5.60;;;16.10;63.40;;;;;;6262701;28;20269;-82
2023/06/14 05:40:16;;;;;;;8.00;7.23;;;16.20;63.30;;;;;;6272237;28;20234;-84
2023/06/14 05:43:20;;;;;;;8.43;7.20;;;16.40;62.70;;;;;;6266589;28;20257;-85
2023/06/14 05:46:25;;;;;;;7.00;6.47;;;16.50;62.40;;;;;;6276383;28;20485;-84
2023/06/14 05:49:29;;;;;;;7.67;6.87;;;16.50;62.50;;;;;;6291031;28;20237;-83
2023/06/14 05:52:32;;;;;;;9.07;6.70;;;16.60;62.40;;;;;;6283491;28;20242;-82
2023/06/14 05:55:35;;;;;;;8.20;7.40;;;16.60;62.10;;;;;;6281780;28;20254;-85
2023/06/14 05:58:40;;;;;;;9.33;7.40;;;16.50;62.30;;;;;;6294695;28;20229;-83
2023/06/14 06:01:45;;;;;;;6.73;6.30;;;16.50;62.20;;;;;;6301921;28;20234;-81
2023/06/14 06:04:48;;;;;;;10.10;7.27;;;16.50;62.20;;;;;;6287343;28;20234;-81
2023/06/14 06:07:51;;;;;;;8.17;7.57;;;16.50;62.20;;;;;;6297667;28;20233;-82
2023/06/14 06:10:54;;;;;;;8.93;6.70;;;16.50;62.20;;;;;;6291029;28;20234;-82
2023/06/14 06:13:57;;;;;;;9.90;7.10;;;16.50;62.50;;;;;;6289700;28;20222;-84
2023/06/14 06:17:02;;;;;;;8.10;7.30;;;16.40;62.30;;;;;;6308856;28;20248;-81
2023/06/14 06:20:08;;;;;;;6.97;6.30;;;16.40;62.50;;;;;;6299162;28;20226;-83
2023/06/14 06:23:11;;;;;;;7.33;6.70;;;16.40;62.70;;;;;;6298040;28;20226;-84
2023/06/14 06:26:14;;;;;;;7.53;6.80;;;16.40;62.80;;;;;;6313009;28;20229;-80
2023/06/14 06:29:17;;;;;;;10.03;7.07;;;16.40;62.70;;;;;;6306044;28;20222;-85
2023/06/14 06:32:22;;;;;;;6.90;6.20;;;16.50;62.70;;;;;;6280199;28;20269;-84
2023/06/14 06:35:25;;;;;;;7.97;6.93;;;16.50;62.70;;;;;;6289773;28;20236;-83
2023/06/14 06:38:28;;;;;;;7.20;6.60;;;16.50;62.70;;;;;;6291989;28;20229;-78
2023/06/14 06:41:32;;;;;;;7.70;6.93;;;16.50;62.50;;;;;;6297379;28;20327;-79
2023/06/14 06:44:35;;;;;;;7.60;7.00;;;16.50;62.60;;;;;;6296787;28;20280;-78
2023/06/14 06:47:40;;;;;;;9.47;6.73;;;16.50;62.70;;;;;;6282171;28;20245;-81
2023/06/14 06:50:43;;;;;;;7.00;6.50;;;16.70;62.60;;;;;;6285004;28;20244;-81
2023/06/14 06:53:53;;;;;;;7.53;6.90;;;16.70;62.50;;;;;;6291491;28;20316;-81
2023/06/14 06:56:56;;;;;;;7.40;6.30;;;16.80;62.30;;;;;;6277078;28;20288;-80
2023/06/14 06:59:59;;;;;;;7.37;6.67;;;17.00;62.10;;;;;;6286361;28;20318;-80
2023/06/14 07:03:04;;;;;;;6.80;5.93;;;17.00;61.90;;;;;;6277978;28;20248;-83
2023/06/14 07:06:07;;;;;;;6.63;6.13;;;17.10;61.80;;;;;;6280087;28;20226;-80
2023/06/14 07:09:12;;;;;;;9.10;6.53;;;17.20;61.60;;;;;;6277934;28;20236;-83
2023/06/14 07:12:16;;;;;;;8.03;6.57;;;17.40;61.40;;;;;;6282411;28;20248;-80
2023/06/14 07:15:19;;;;;;;9.10;6.40;;;17.50;61.30;;;;;;6282514;28;20249;-78
2023/06/14 07:18:24;;;;;;;10.50;7.40;;;17.60;60.70;;;;;;6275975;28;20591;-79
2023/06/14 07:21:27;;;;;;;8.20;6.77;;;17.60;60.20;;;;;;6272130;28;20290;-79
2023/06/14 07:24:30;;;;;;;10.80;6.90;;;17.60;60.30;;;;;;6284759;28;20237;-79
2023/06/14 07:27:33;;;;;;;10.63;7.00;;;17.70;60.30;;;;;;6262259;28;20292;-81
2023/06/14 07:30:36;;;;;;;8.97;7.67;;;17.70;60.20;;;;;;6291533;28;20761;-79
2023/06/14 07:33:41;;;;;;;7.13;6.53;;;17.80;60.50;;;;;;6272936;28;20256;-79
2023/06/14 07:36:45;;;;;;;7.97;7.17;;;18.00;60.00;;;;;;6273645;28;20290;-79
2023/06/14 07:39:48;;;;;;;6.47;5.97;;;18.20;59.40;;;;;;6264919;28;20254;-82
2023/06/14 07:42:54;;;;;;;6.60;5.87;;;18.50;59.70;;;;;;6278441;28;20221;-81
2023/06/14 07:45:57;;;;;;;7.50;6.27;;;18.80;58.70;;;;;;6286707;28;20374;-79
2023/06/14 07:49:13;;;;;;;7.00;6.27;;;19.10;58.70;;;;;;6275857;28;20758;-80
2023/06/14 07:52:16;;;;;;;5.40;5.20;;;19.30;58.10;;;;;;6284574;28;20303;-82
2023/06/14 07:55:19;;;;;;;5.87;5.43;;;19.50;57.30;;;;;;6276093;28;20332;-82
2023/06/14 07:58:22;;;;;;;8.50;5.90;;;19.80;56.90;;;;;;6281293;28;20325;-81
2023/06/14 08:01:25;;;;;;;6.23;5.47;;;20.00;56.40;;;;;;6284854;28;20237;-80
2023/06/14 08:04:30;;;;;;;7.93;6.10;;;20.10;56.50;;;;;;6284738;28;20829;-80
2023/06/14 08:07:34;;;;;;;9.07;5.67;;;20.30;55.40;;;;;;6269121;28;20250;-79
2023/06/14 08:10:37;;;;;;;8.20;6.07;;;20.30;55.70;;;;;;6281976;28;20256;-81
2023/06/14 08:13:40;;;;;;;5.60;5.20;;;20.00;55.50;;;;;;6284640;28;20244;-81
2023/06/14 08:16:43;;;;;;;9.87;5.60;;;19.90;55.90;;;;;;6270001;28;20245;-82
2023/06/14 08:19:47;;;;;;;5.60;5.10;;;19.70;56.20;;;;;;6286337;28;20241;-80
2023/06/14 08:22:55;;;;;;;8.87;5.40;;;19.50;56.60;;;;;;6282964;28;20825;-81
2023/06/14 08:25:58;;;;;;;11.73;5.67;;;19.50;56.20;;;;;;6285357;28;20257;-83
2023/06/14 08:29:01;;;;;;;5.30;4.77;;;19.70;56.70;;;;;;6282733;28;20229;-81
2023/06/14 08:32:05;;;;;;;5.63;5.00;;;19.90;55.90;;;;;;6279048;28;20238;-80
2023/06/14 08:35:10;;;;;;;7.13;4.90;;;20.10;56.00;;;;;;6277830;28;20253;-80
2023/06/14 08:38:13;;;;;;;7.03;5.00;;;20.50;55.50;;;;;;6288322;28;20245;-81
2023/06/14 08:41:23;;;;;;;9.70;5.00;;;20.50;54.70;;;;;;6281288;28;20299;-81
2023/06/14 08:44:26;;;;;;;5.07;4.67;;;20.50;54.50;;;;;;6272873;28;20303;-81
2023/06/14 08:47:36;;;;;;;5.00;4.60;;;20.50;54.80;;;;;;6267971;28;20797;-80
2023/06/14 08:50:47;;;;;;;9.67;5.20;;;20.50;54.50;;;;;;6278005;28;20446;-81
2023/06/14 08:53:57;;;;;;;7.83;4.93;;;20.50;54.30;;;;;;6283492;28;20307;-81
2023/06/14 08:57:01;;;;;;;4.67;4.40;;;20.50;53.60;;;;;;6279741;28;20309;-80
2023/06/14 09:00:11;;;;;;;6.67;4.70;;;20.60;53.50;;;;;;6280017;28;20237;-81
2023/06/14 09:03:15;;;;;;;8.60;4.73;;;20.60;53.60;;;;;;6284033;28;20268;-81
2023/06/14 09:06:22;;;;;;;6.20;4.70;;;20.90;53.90;;;;;;6281035;28;20245;-81
2023/06/14 09:09:27;;;;;;;5.90;4.90;;;21.30;53.60;;;;;;6274864;28;20662;-81
2023/06/14 09:12:31;;;;;;;5.17;4.60;;;21.60;52.80;;;;;;6273294;28;20645;-81
2023/06/14 09:15:35;;;;;;;5.10;4.60;;;21.90;52.10;;;;;;6282335;28;20329;-82
2023/06/14 09:18:40;;;;;;;5.00;4.60;;;21.90;51.20;;;;;;6281447;28;20257;-80
2023/06/14 09:21:48;;;;;;;4.67;4.27;;;21.90;51.20;;;;;;6277958;28;20717;-81
2023/06/14 09:24:51;;;;;;;7.10;4.30;;;22.00;50.90;;;;;;6282556;28;20226;-83
2023/06/14 09:27:56;;;;;;;4.90;4.60;;;22.20;51.10;;;;;;6282103;28;20235;-81
2023/06/14 09:31:01;;;;;;;4.23;3.97;;;22.30;50.40;;;;;;6277675;28;20234;-80
2023/06/14 09:34:04;;;;;;;5.73;4.60;;;22.30;50.00;;;;;;6268388;28;20238;-81
2023/06/14 09:37:09;;;;;;;4.90;4.50;;;22.30;50.10;;;;;;6268168;28;20233;-83
2023/06/14 09:40:12;;;;;;;4.47;3.87;;;22.20;50.70;;;;;;6275889;28;20276;-81
2023/06/14 09:43:16;;;;;;;6.10;4.90;;;22.30;50.40;;;;;;6280338;28;20272;-82
2023/06/14 09:46:20;;;;;;;5.73;5.20;;;22.30;50.50;;;;;;6277436;28;20254;-81
2023/06/14 09:49:25;;;;;;;21.03;6.73;;;22.20;50.70;;;;;;6275679;28;20255;-83
2023/06/14 09:52:30;;;;;;;11.50;6.30;;;22.30;50.80;;;;;;6279717;28;20242;-81
2023/06/14 09:55:37;;;;;;;6.30;4.80;;;22.30;50.80;;;;;;6274429;28;20905;-80
2023/06/14 09:58:41;;;;;;;10.23;4.90;;;22.30;50.60;;;;;;6291096;28;20668;-80
2023/06/14 10:01:45;;;;;;;4.80;4.40;;;22.30;50.30;;;;;;6282987;28;20249;-81
2023/06/14 10:05:00;;;;;;;6.83;4.93;;;22.30;50.30;;;;;;6263527;28;20235;-81
2023/06/14 10:08:09;;;;;;;6.83;4.93;;;22.40;50.20;;;;;;6278637;28;20223;-81
2023/06/14 10:11:14;;;;;;;5.23;4.53;;;22.40;50.30;;;;;;6273809;28;20734;-82
2023/06/14 10:14:18;;;;;;;5.07;4.70;;;22.40;50.20;;;;;;6268592;28;20233;-81
2023/06/14 10:17:33;;;;;;;8.80;5.20;;;22.30;50.50;;;;;;6269116;28;20929;-79
2023/06/14 10:20:43;;;;;;;15.83;5.03;;;22.30;50.30;;;;;;6259542;28;20234;-80
2023/06/14 10:23:49;;;;;;;6.53;4.90;;;22.40;50.30;;;;;;6279627;28;20298;-84
2023/06/14 10:26:55;;;;;;;5.10;4.63;;;22.50;50.20;;;;;;6274758;28;20372;-79
2023/06/14 10:30:08;;;;;;;5.43;4.67;;;22.40;50.90;;;;;;6274927;28;20241;-82
2023/06/14 10:33:11;;;;;;;5.00;4.50;;;22.40;50.10;;;;;;6270417;28;20257;-85
2023/06/14 10:36:33;;;;;;;6.93;4.07;;;22.40;49.90;;;;;;6280812;28;20240;-83
2023/06/14 10:39:41;;;;;;;8.60;4.87;;;22.00;50.10;;;;;;6259116;28;20257;-84
2023/06/14 10:42:52;;;;;;;9.23;4.80;;;22.00;50.90;;;;;;6259985;28;21411;-83
2023/06/14 10:46:18;;;;;;;4.93;4.57;;;22.10;50.90;;;;;;6275011;28;20234;-82
2023/06/14 10:49:38;;;;;;;5.13;4.63;;;22.20;50.00;;;;;;6271988;28;20673;-82
2023/06/14 10:52:43;;;;;;;5.90;4.57;;;22.30;50.00;;;;;;6281669;28;20249;-84
2023/06/14 10:55:50;;;;;;;5.67;4.30;;;22.50;49.50;;;;;;6272936;28;20244;-81
2023/06/14 10:58:53;;;;;;;4.73;4.30;;;22.60;49.80;;;;;;6275496;28;20244;-82
2023/06/14 11:02:13;;;;;;;5.57;5.07;;;22.80;49.70;;;;;;6272903;28;20371;-82
2023/06/14 11:05:17;;;;;;;5.07;4.67;;;22.90;48.70;;;;;;6272655;28;20243;-81
2023/06/14 11:09:11;;;;;;;9.93;4.50;;;23.10;48.30;;;;;;6270621;28;20241;-81
2023/06/14 11:12:18;;;;;;;4.43;4.10;;;23.10;48.40;;;;;;6195237;28;20258;-84
2023/06/14 11:15:21;;;;;;;5.67;5.13;;;23.10;48.90;;;;;;6271742;28;20448;-83
2023/06/14 11:18:27;;;;;;;7.53;4.73;;;23.20;48.80;;;;;;6267871;28;20233;-82
2023/06/14 11:21:33;;;;;;;6.20;4.80;;;23.40;48.50;;;;;;6264181;28;20248;-81
2023/06/14 11:24:36;;;;;;;4.30;4.10;;;23.40;48.90;;;;;;6263398;28;20238;-82
2023/06/14 11:27:42;;;;;;;7.43;4.67;;;23.50;48.30;;;;;;6278183;28;20623;-83
2023/06/14 11:30:46;;;;;;;5.30;4.50;;;23.50;48.20;;;;;;6292717;28;20241;-81
2023/06/14 11:33:50;;;;;;;5.87;4.83;;;23.60;47.90;;;;;;6279037;28;20370;-85
2023/06/14 11:36:54;;;;;;;6.00;4.33;;;23.60;47.70;;;;;;6272437;28;20550;-83
2023/06/14 11:39:58;;;;;;;4.70;4.13;;;23.50;48.00;;;;;;6265698;28;20288;-83
2023/06/14 11:43:04;;;;;;;5.13;4.60;;;23.60;47.90;;;;;;6266027;28;20311;-81
2023/06/14 11:46:15;;;;;;;6.17;4.50;;;23.30;47.60;;;;;;6271838;28;20222;-84
2023/06/14 11:49:18;;;;;;;4.83;4.40;;;23.40;48.00;;;;;;6280421;28;20722;-83
2023/06/14 11:52:23;;;;;;;5.43;4.60;;;23.60;47.60;;;;;;6278542;28;20271;-83
2023/06/14 11:55:27;;;;;;;6.93;4.37;;;23.70;47.50;;;;;;6281282;28;20237;-83
2023/06/14 11:58:32;;;;;;;6.83;4.53;;;23.80;46.50;;;;;;6292743;28;20584;-85
2023/06/14 12:01:39;;;;;;;6.93;3.93;;;23.70;46.50;;;;;;6285957;28;20259;-84
2023/06/14 12:04:44;;;;;;;4.57;4.27;;;23.80;46.20;;;;;;6300324;28;20235;-84
2023/06/14 12:07:48;;;;;;;4.40;4.10;;;24.00;46.30;;;;;;6281271;28;20242;-86
2023/06/14 12:10:52;;;;;;;5.83;4.67;;;24.20;45.80;;;;;;6271626;28;20735;-86
2023/06/14 12:13:58;;;;;;;9.50;5.47;;;24.40;46.30;;;;;;6284102;28;20461;-84
2023/06/14 12:17:07;;;;;;;7.57;4.87;;;24.50;45.70;;;;;;6272240;28;20921;-85
2023/06/14 12:20:13;;;;;;;5.73;5.27;;;24.40;46.50;;;;;;6269454;28;20226;-83
2023/06/14 12:23:17;;;;;;;6.60;4.77;;;24.50;45.80;;;;;;6276988;28;20241;-82
2023/06/14 12:26:27;;;;;;;8.53;4.60;;;24.40;45.40;;;;;;6278777;28;20237;-82
2023/06/14 12:29:33;;;;;;;5.67;5.00;;;24.20;45.70;;;;;;6274578;28;20244;-82
2023/06/14 12:32:36;;;;;;;6.37;4.80;;;24.20;45.70;;;;;;6279086;28;20238;-83
2023/06/14 12:35:39;;;;;;;5.23;4.70;;;23.90;46.00;;;;;;6266654;28;20229;-81
2023/06/14 12:38:42;;;;;;;6.77;4.63;;;23.90;45.00;;;;;;6260766;28;20749;-82
2023/06/14 12:41:46;;;;;;;5.77;4.17;;;24.10;45.20;;;;;;6267088;28;20245;-81
2023/06/14 12:44:50;;;;;;;4.43;3.90;;;24.20;44.80;;;;;;6274271;28;20530;-83
2023/06/14 12:47:53;;;;;;;8.17;4.30;;;24.40;44.00;;;;;;6269921;28;20408;-81
2023/06/14 12:50:56;;;;;;;4.77;3.97;;;24.50;42.90;;;;;;6278100;28;20238;-83
2023/06/14 12:54:00;;;;;;;4.23;3.83;;;24.90;43.60;;;;;;6284514;28;20626;-83
2023/06/14 12:57:03;;;;;;;4.37;4.10;;;25.40;43.00;;;;;;6273372;28;20341;-82
2023/06/14 13:00:10;;;;;;;7.73;4.30;;;25.90;41.50;;;;;;6270897;28;20240;-83
2023/06/14 13:03:14;;;;;;;5.17;4.47;;;26.00;41.00;;;;;;6268224;28;20305;-83
2023/06/14 13:06:17;;;;;;;8.63;4.47;;;26.10;40.80;;;;;;6263247;28;20225;-81
2023/06/14 13:09:20;;;;;;;4.87;4.43;;;26.00;40.50;;;;;;6273691;28;20229;-82
2023/06/14 13:12:23;;;;;;;10.27;4.40;;;26.00;40.70;;;;;;6273652;28;20291;-82
2023/06/14 13:15:28;;;;;;;13.23;4.87;;;26.10;40.10;;;;;;6271376;28;20254;-81
2023/06/14 13:18:31;;;;;;;7.63;5.10;;;26.20;40.10;;;;;;6272056;28;20238;-82
2023/06/14 13:21:35;;;;;;;5.10;4.70;;;26.20;40.00;;;;;;6269657;28;20934;-82
2023/06/14 13:24:41;;;;;;;9.00;4.43;;;26.20;40.40;;;;;;6278197;28;20364;-82
2023/06/14 13:27:47;;;;;;;7.37;5.10;;;26.00;40.90;;;;;;6252655;28;20307;-83
2023/06/14 13:30:52;;;;;;;9.23;4.60;;;25.90;41.50;;;;;;6275958;28;20266;-82
2023/06/14 13:33:55;;;;;;;6.40;4.50;;;26.00;41.00;;;;;;6270154;28;20351;-82
2023/06/14 13:36:58;;;;;;;4.70;3.93;;;25.80;40.20;;;;;;6269071;28;20463;-82
2023/06/14 13:40:02;;;;;;;9.60;4.40;;;25.80;40.50;;;;;;6272767;28;20230;-81
2023/06/14 13:43:05;;;;;;;4.83;4.03;;;25.80;40.00;;;;;;6276375;28;21625;-84
2023/06/14 13:49:55;;;;;;;5.37;4.10;;;26.00;40.40;;;;;;6261126;28;20250;-85
2023/06/14 13:53:15;;;;;;;4.83;4.30;;;26.00;40.30;;;;;;6268684;28;20242;-82
2023/06/14 13:56:36;;;;;;;6.30;4.37;;;26.40;40.60;;;;;;6271771;28;20253;-81
2023/06/14 14:00:01;;;;;;;6.77;4.43;;;26.60;39.80;;;;;;6265567;28;20226;-82
2023/06/14 14:03:24;;;;;;;11.80;4.53;;;26.70;39.30;;;;;;6259542;28;20260;-83
2023/06/14 14:06:45;;;;;;;9.77;4.77;;;26.70;39.90;;;;;;6269806;28;20841;-83
2023/06/14 14:10:07;;;;;;;4.83;4.53;;;26.90;39.30;;;;;;6287913;28;20230;-83
2023/06/14 14:13:28;;;;;;;7.60;4.70;;;26.60;39.60;;;;;;6270043;28;20235;-83
2023/06/14 14:16:48;;;;;;;5.60;4.40;;;26.50;39.70;;;;;;6259962;28;20361;-82
2023/06/14 14:20:12;;;;;;;12.03;5.00;;;26.30;40.40;;;;;;6271996;28;20230;-81
2023/06/14 14:23:33;;;;;;;4.93;4.37;;;26.20;40.60;;;;;;6270275;28;20260;-82
2023/06/14 14:26:54;;;;;;;5.93;4.50;;;26.20;41.00;;;;;;6264997;28;20238;-83
2023/06/14 14:30:16;;;;;;;8.60;4.77;;;26.20;41.00;;;;;;6267372;28;20233;-82
2023/06/14 14:33:20;;;;;;;7.00;6.30;;;26.10;40.90;;;;;;6263309;28;20230;-81
2023/06/14 14:36:25;;;;;;;5.93;4.60;;;25.90;41.00;;;;;;6273045;28;20650;-82
2023/06/14 14:39:29;;;;;;;8.60;4.83;;;25.80;41.10;;;;;;6285717;28;20936;-84
2023/06/14 14:42:32;;;;;;;6.00;4.43;;;25.80;41.10;;;;;;6267473;28;20249;-82
2023/06/14 14:45:36;;;;;;;6.90;4.63;;;25.80;40.90;;;;;;6269484;28;20626;-83
2023/06/14 14:48:39;;;;;;;6.30;4.17;;;25.60;41.00;;;;;;6271163;28;20234;-83
2023/06/14 14:51:44;;;;;;;4.60;4.40;;;25.40;41.10;;;;;;6273834;28;20226;-81
2023/06/14 14:54:49;;;;;;;6.60;4.83;;;25.20;41.40;;;;;;6268978;28;20714;-82
2023/06/14 14:57:56;;;;;;;5.80;4.97;;;25.00;41.40;;;;;;6270589;28;20237;-79
2023/06/14 15:00:59;;;;;;;10.07;4.37;;;24.70;42.00;;;;;;6267933;28;20233;-81
2023/06/14 15:04:02;;;;;;;5.07;4.60;;;24.40;42.50;;;;;;6264024;28;20230;-82
2023/06/14 15:07:07;;;;;;;4.50;4.37;;;24.20;43.20;;;;;;6271726;28;20664;-81
2023/06/14 15:10:13;;;;;;;5.47;4.80;;;24.00;43.50;;;;;;6271743;28;20233;-81
2023/06/14 15:13:17;;;;;;;5.37;4.37;;;23.90;43.70;;;;;;6275587;28;20238;-84
2023/06/14 15:16:20;;;;;;;6.83;4.03;;;23.70;43.80;;;;;;6274695;28;20740;-80
2023/06/14 15:19:23;;;;;;;5.13;4.40;;;23.50;44.00;;;;;;6278877;28;20240;-81
2023/06/14 15:22:28;;;;;;;4.73;4.23;;;23.40;44.00;;;;;;6280584;28;20623;-82
2023/06/14 15:25:32;;;;;;;4.23;3.83;;;23.20;44.10;;;;;;6280255;28;20242;-81
2023/06/14 15:28:35;;;;;;;4.20;3.90;;;23.10;44.20;;;;;;6286927;28;20233;-84
2023/06/14 15:31:38;;;;;;;5.67;4.10;;;23.00;44.30;;;;;;6270669;28;20260;-82
2023/06/14 15:34:41;;;;;;;4.90;4.40;;;23.10;44.50;;;;;;6272542;28;20753;-82
2023/06/14 15:37:49;;;;;;;6.77;4.23;;;23.10;44.20;;;;;;6271844;28;20253;-81
2023/06/14 15:40:55;;;;;;;4.17;3.80;;;23.10;44.10;;;;;;6261031;28;20246;-81
2023/06/14 15:43:58;;;;;;;4.70;4.30;;;23.20;44.10;;;;;;6278600;28;20245;-83
2023/06/14 15:47:04;;;;;;;3.90;3.70;;;23.40;44.30;;;;;;6263222;28;20384;-81
2023/06/14 15:50:08;;;;;;;4.80;4.30;;;23.60;44.40;;;;;;6270346;28;20317;-80
2023/06/14 15:53:12;;;;;;;9.97;4.53;;;24.00;43.80;;;;;;6263458;28;20362;-83
2023/06/14 15:56:16;;;;;;;4.50;4.13;;;24.20;43.50;;;;;;6264123;28;20260;-81
2023/06/14 15:59:19;;;;;;;7.53;4.37;;;24.20;43.60;;;;;;6268413;28;20756;-80
2023/06/14 16:02:22;;;;;;;5.93;4.40;;;24.00;43.00;;;;;;6279713;28;20753;-81
2023/06/14 16:05:26;;;;;;;5.60;4.37;;;23.90;43.20;;;;;;6273655;28;20260;-81
2023/06/14 16:08:30;;;;;;;4.73;4.30;;;23.60;43.40;;;;;;6275951;28;20963;-81